createdAt,value
2023-06-29T00:01:56.351Z,14.10
2023-06-29T00:04:26.354Z,14.10
2023-06-29T00:06:55.835Z,14.00
2023-06-29T00:09:22.629Z,14.00
2023-06-29T00:11:48.933Z,14.00
2023-06-29T00:14:15.489Z,14.00
2023-06-29T00:16:42.662Z,14.00
2023-06-29T00:19:09.170Z,14.00
2023-06-29T00:21:35.639Z,14.00
2023-06-29T00:24:03.190Z,13.90
2023-06-29T00:26:29.643Z,13.90
2023-06-29T00:28:56.928Z,13.90
2023-06-29T00:31:24.798Z,13.90
2023-06-29T00:33:51.655Z,13.90
2023-06-29T00:36:18.460Z,13.90
2023-06-29T00:38:44.830Z,13.80
2023-06-29T00:41:11.118Z,14.00
2023-06-29T00:43:37.468Z,13.80
2023-06-29T00:46:08.236Z,13.70
2023-06-29T00:48:37.508Z,13.60
2023-06-29T00:51:04.468Z,13.70
2023-06-29T00:53:30.792Z,13.80
2023-06-29T00:55:58.346Z,13.60
2023-06-29T00:58:25.100Z,13.50
2023-06-29T01:00:51.316Z,12.50
2023-06-29T01:03:17.811Z,13.50
2023-06-29T01:05:46.120Z,13.50
2023-06-29T01:08:17.917Z,13.50
2023-06-29T01:10:45.027Z,13.50
2023-06-29T01:13:11.564Z,13.50
2023-06-29T01:15:38.068Z,13.50
2023-06-29T01:18:04.440Z,13.50
2023-06-29T01:20:31.975Z,13.50
2023-06-29T01:23:05.653Z,13.50
2023-06-29T01:25:33.414Z,13.40
2023-06-29T01:27:59.683Z,13.40
2023-06-29T01:30:26.817Z,13.40
2023-06-29T01:32:53.229Z,13.40
2023-06-29T01:35:19.591Z,13.30
2023-06-29T01:38:02.660Z,13.30
2023-06-29T01:40:29.193Z,13.20
2023-06-29T01:42:56.268Z,13.20
2023-06-29T01:45:22.700Z,13.20
2023-06-29T01:47:49.487Z,13.20
2023-06-29T01:50:16.826Z,13.20
2023-06-29T01:52:46.111Z,13.20
2023-06-29T01:55:12.506Z,13.20
2023-06-29T01:57:38.865Z,13.20
2023-06-29T02:00:06.473Z,13.20
2023-06-29T02:02:32.876Z,13.20
2023-06-29T02:04:59.496Z,13.10
2023-06-29T02:07:25.799Z,13.10
2023-06-29T02:09:52.159Z,13.10
2023-06-29T02:12:18.516Z,13.10
2023-06-29T02:14:44.739Z,13.00
2023-06-29T02:17:10.946Z,13.10
2023-06-29T02:19:37.411Z,13.00
2023-06-29T02:22:04.094Z,13.00
2023-06-29T02:24:31.462Z,12.90
2023-06-29T02:26:57.695Z,12.90
2023-06-29T02:29:24.028Z,12.90
2023-06-29T02:31:50.465Z,12.90
2023-06-29T02:34:17.018Z,12.90
2023-06-29T02:36:43.350Z,12.90
2023-06-29T02:39:09.870Z,12.90
2023-06-29T02:41:36.210Z,12.90
2023-06-29T02:44:03.372Z,12.90
2023-06-29T02:46:29.825Z,12.80
2023-06-29T02:48:56.105Z,12.80
2023-06-29T02:51:22.291Z,12.80
2023-06-29T02:53:48.493Z,12.80
2023-06-29T02:56:14.700Z,12.80
2023-06-29T02:58:40.911Z,12.70
2023-06-29T03:01:07.437Z,12.70
2023-06-29T03:03:33.948Z,12.70
2023-06-29T03:06:00.254Z,12.70
2023-06-29T03:08:26.452Z,12.70
2023-06-29T03:10:52.798Z,12.70
2023-06-29T03:13:19.036Z,12.70
2023-06-29T03:15:45.456Z,12.70
2023-06-29T03:18:12.080Z,12.80
2023-06-29T03:20:38.341Z,12.80
2023-06-29T03:23:04.622Z,12.90
2023-06-29T03:25:30.916Z,12.90
2023-06-29T03:27:57.349Z,13.30
2023-06-29T03:30:23.578Z,14.00
2023-06-29T03:32:49.811Z,14.90
2023-06-29T03:35:16.074Z,15.30
2023-06-29T03:37:42.303Z,15.30
2023-06-29T03:40:09.484Z,15.40
2023-06-29T03:42:35.822Z,15.30
2023-06-29T03:45:02.578Z,15.20
2023-06-29T03:47:28.849Z,15.40
2023-06-29T03:49:55.311Z,16.50
2023-06-29T03:52:21.586Z,17.90
2023-06-29T03:54:50.206Z,19.10
2023-06-29T03:57:16.759Z,20.00
2023-06-29T03:59:43.028Z,20.70
2023-06-29T04:02:12.085Z,21.30
2023-06-29T04:04:38.775Z,21.70
2023-06-29T04:07:05.019Z,22.10
2023-06-29T04:09:32.458Z,22.50
2023-06-29T04:11:58.691Z,23.00
2023-06-29T04:14:24.961Z,23.20
2023-06-29T04:16:51.193Z,23.50
2023-06-29T04:19:17.496Z,23.80
2023-06-29T04:21:43.768Z,23.40
2023-06-29T04:24:09.964Z,23.90
2023-06-29T04:26:39.321Z,23.70
2023-06-29T04:29:06.624Z,23.60
2023-06-29T04:31:33.482Z,23.70
2023-06-29T04:33:59.679Z,24.00
2023-06-29T04:36:26.293Z,24.30
2023-06-29T04:38:52.457Z,24.80
2023-06-29T04:41:18.664Z,25.10
2023-06-29T04:43:48.215Z,23.70
2023-06-29T04:46:14.572Z,23.10
2023-06-29T04:48:40.955Z,22.80
2023-06-29T04:51:07.297Z,21.70
2023-06-29T04:53:34.229Z,21.90
2023-06-29T04:56:02.237Z,20.80
2023-06-29T04:58:28.439Z,20.20
2023-06-29T05:00:54.905Z,19.60
2023-06-29T05:03:21.205Z,19.60
2023-06-29T05:05:47.532Z,19.30
2023-06-29T05:08:13.848Z,19.20
2023-06-29T05:10:40.078Z,19.10
2023-06-29T05:13:06.267Z,18.90
2023-06-29T05:15:32.533Z,18.70
2023-06-29T05:17:58.813Z,18.50
2023-06-29T05:20:25.242Z,18.30
2023-06-29T05:22:51.457Z,18.10
2023-06-29T05:25:17.698Z,18.10
2023-06-29T05:27:43.936Z,18.10
2023-06-29T05:30:11.697Z,18.00
2023-06-29T05:32:38.465Z,18.00
2023-06-29T05:35:05.229Z,17.90
2023-06-29T05:37:31.497Z,18.00
2023-06-29T05:39:58.052Z,18.10
2023-06-29T05:42:24.597Z,18.20
2023-06-29T05:44:50.857Z,18.20
2023-06-29T05:47:19.367Z,18.20
2023-06-29T05:49:45.865Z,18.40
2023-06-29T05:52:12.047Z,18.50
2023-06-29T05:54:38.435Z,18.60
2023-06-29T05:57:04.944Z,18.70
2023-06-29T05:59:31.165Z,18.80
2023-06-29T06:01:57.517Z,18.90
2023-06-29T06:04:23.972Z,19.00
2023-06-29T06:06:50.166Z,19.30
2023-06-29T06:09:16.393Z,18.60
2023-06-29T06:11:42.740Z,19.60
2023-06-29T06:14:09.017Z,19.70
2023-06-29T06:16:35.326Z,20.00
2023-06-29T06:19:01.613Z,20.20
2023-06-29T06:21:27.868Z,20.90
2023-06-29T06:23:54.286Z,21.30
2023-06-29T06:26:20.525Z,21.70
2023-06-29T06:28:46.718Z,21.50
2023-06-29T06:31:24.174Z,21.50
2023-06-29T06:33:58.733Z,21.50
2023-06-29T06:36:25.623Z,21.20
2023-06-29T06:38:51.836Z,21.40
2023-06-29T06:41:18.100Z,21.20
2023-06-29T06:43:44.323Z,21.40
2023-06-29T06:46:10.573Z,21.20
2023-06-29T06:48:36.841Z,21.50
2023-06-29T06:51:03.153Z,21.60
2023-06-29T06:53:29.405Z,21.60
2023-06-29T06:55:55.758Z,21.70
2023-06-29T06:58:22.018Z,23.30
2023-06-29T07:00:48.407Z,21.90
2023-06-29T07:03:14.847Z,21.60
2023-06-29T07:05:41.121Z,21.70
2023-06-29T07:08:07.406Z,21.50
2023-06-29T07:10:33.632Z,22.30
2023-06-29T07:12:59.821Z,22.90
2023-06-29T07:15:26.013Z,22.20
2023-06-29T07:17:52.239Z,22.20
2023-06-29T07:25:16.808Z,23.70
2023-06-29T07:27:43.064Z,24.40
2023-06-29T07:30:09.781Z,24.90
2023-06-29T07:32:36.152Z,26.10
2023-06-29T07:35:02.525Z,26.00
2023-06-29T07:37:28.769Z,27.50
2023-06-29T07:39:55.018Z,26.90
2023-06-29T07:42:34.212Z,26.00
2023-06-29T07:45:06.089Z,25.80
2023-06-29T07:47:32.348Z,26.10
2023-06-29T07:49:58.895Z,25.00
2023-06-29T07:52:25.723Z,23.30
2023-06-29T07:54:52.230Z,23.10
2023-06-29T07:59:47.924Z,26.30
2023-06-29T08:02:14.174Z,28.40
2023-06-29T08:07:10.668Z,27.30
2023-06-29T08:09:38.040Z,26.70
2023-06-29T08:12:04.904Z,25.80
2023-06-29T08:14:33.207Z,25.30
2023-06-29T08:16:59.564Z,25.10
2023-06-29T08:19:26.071Z,24.30
2023-06-29T08:21:55.797Z,26.30
2023-06-29T08:24:21.971Z,27.80
2023-06-29T08:26:48.223Z,27.80
2023-06-29T08:29:14.420Z,29.60
2023-06-29T08:31:41.040Z,28.50
2023-06-29T08:34:07.392Z,26.30
2023-06-29T08:36:34.700Z,27.90
2023-06-29T08:39:00.923Z,29.00
2023-06-29T08:41:27.192Z,29.40
2023-06-29T08:43:53.684Z,28.20
2023-06-29T08:46:19.986Z,29.10
2023-06-29T08:48:46.208Z,30.90
2023-06-29T08:51:12.703Z,30.60
2023-06-29T08:53:40.790Z,29.40
2023-06-29T08:56:07.079Z,27.20
2023-06-29T08:58:33.395Z,26.00
2023-06-29T09:00:59.912Z,25.20
2023-06-29T09:03:27.078Z,25.80
2023-06-29T09:05:56.272Z,27.40
2023-06-29T09:08:24.200Z,27.70
2023-06-29T09:10:50.442Z,25.60
2023-06-29T09:13:16.714Z,27.40
2023-06-29T09:15:43.101Z,27.60
2023-06-29T09:18:10.525Z,26.80
2023-06-29T09:20:37.089Z,25.80
2023-06-29T09:23:06.681Z,25.10
2023-06-29T09:25:35.120Z,24.40
2023-06-29T09:28:05.668Z,24.10
2023-06-29T09:30:36.738Z,23.80
2023-06-29T09:33:10.877Z,23.80
2023-06-29T09:35:39.289Z,25.40
2023-06-29T09:38:05.710Z,25.30
2023-06-29T09:40:31.921Z,25.60
2023-06-29T09:43:02.213Z,26.10
2023-06-29T09:45:30.757Z,25.90
2023-06-29T09:50:27.375Z,25.00
2023-06-29T09:52:55.882Z,25.60
2023-06-29T09:55:29.384Z,26.90
2023-06-29T09:57:55.804Z,28.00
2023-06-29T10:00:22.662Z,28.40
2023-06-29T10:02:49.181Z,29.30
2023-06-29T10:05:15.914Z,29.00
2023-06-29T10:07:42.200Z,28.50
2023-06-29T10:10:10.586Z,28.30
2023-06-29T10:12:36.808Z,29.00
2023-06-29T10:15:08.948Z,29.70
2023-06-29T10:17:44.533Z,29.50
2023-06-29T10:20:12.373Z,30.40
2023-06-29T10:22:38.740Z,30.50
2023-06-29T10:25:07.151Z,31.30
2023-06-29T10:27:33.656Z,31.80
2023-06-29T10:30:04.114Z,31.90
2023-06-29T10:32:34.591Z,31.90
2023-06-29T10:35:19.006Z,32.20
2023-06-29T10:37:47.565Z,32.20
2023-06-29T10:40:17.764Z,32.20
2023-06-29T10:42:54.150Z,32.20
2023-06-29T10:45:31.279Z,30.00
2023-06-29T10:48:02.056Z,29.60
2023-06-29T10:50:39.900Z,29.90
2023-06-29T10:53:08.117Z,30.30
2023-06-29T10:55:51.962Z,30.60
2023-06-29T10:58:26.148Z,30.40
2023-06-29T11:00:53.151Z,30.00
2023-06-29T11:03:20.533Z,30.20
2023-06-29T11:05:54.340Z,28.90
2023-06-29T11:08:21.686Z,28.30
2023-06-29T11:10:48.270Z,27.90
2023-06-29T11:13:14.571Z,29.20
2023-06-29T11:15:40.818Z,29.80
2023-06-29T11:18:07.897Z,30.30
2023-06-29T11:20:39.746Z,31.10
2023-06-29T11:23:12.203Z,31.80
2023-06-29T11:25:38.487Z,30.80
2023-06-29T11:28:04.837Z,29.60
2023-06-29T11:30:31.042Z,28.60
2023-06-29T11:32:57.373Z,28.20
2023-06-29T11:35:23.930Z,26.80
2023-06-29T11:37:51.495Z,26.60
2023-06-29T11:40:21.918Z,26.90
2023-06-29T11:42:49.892Z,26.90
2023-06-29T11:45:16.893Z,26.50
2023-06-29T11:47:44.583Z,25.70
2023-06-29T11:50:10.859Z,25.90
2023-06-29T11:52:38.638Z,26.20
2023-06-29T11:55:06.609Z,26.30
2023-06-29T11:57:37.555Z,27.10
2023-06-29T12:00:09.163Z,28.40
2023-06-29T12:02:36.793Z,28.80
2023-06-29T12:05:06.659Z,28.80
2023-06-29T12:07:43.799Z,28.90
2023-06-29T12:10:14.483Z,28.10
2023-06-29T12:12:45.796Z,27.50
2023-06-29T12:15:19.444Z,27.20
2023-06-29T12:20:20.107Z,27.20
2023-06-29T12:22:48.940Z,28.30
2023-06-29T12:25:16.660Z,29.10
2023-06-29T12:27:43.988Z,28.60
2023-06-29T12:30:11.750Z,28.90
2023-06-29T12:32:38.105Z,28.80
2023-06-29T12:35:05.492Z,29.00
2023-06-29T12:37:31.733Z,28.90
2023-06-29T12:39:58.010Z,28.00
2023-06-29T12:42:24.187Z,26.80
2023-06-29T12:44:53.625Z,26.90
2023-06-29T12:47:19.875Z,27.20
2023-06-29T12:49:46.961Z,28.10
2023-06-29T12:52:20.390Z,27.80
2023-06-29T12:54:46.618Z,27.00
2023-06-29T12:57:13.158Z,26.70
2023-06-29T12:59:40.333Z,27.90
2023-06-29T13:02:07.538Z,28.80
2023-06-29T13:04:40.518Z,28.10
2023-06-29T13:07:07.007Z,27.00
2023-06-29T13:09:35.970Z,26.60
2023-06-29T13:12:06.377Z,26.40
2023-06-29T13:14:33.831Z,26.60
2023-06-29T13:17:00.218Z,26.70
2023-06-29T13:19:27.052Z,26.50
2023-06-29T13:21:53.970Z,26.50
2023-06-29T13:24:21.651Z,26.20
2023-06-29T13:26:52.337Z,26.00
2023-06-29T13:29:21.727Z,26.10
2023-06-29T13:31:48.458Z,25.70
2023-06-29T13:34:14.947Z,26.00
2023-06-29T13:36:41.180Z,26.50
2023-06-29T13:39:07.906Z,27.50
2023-06-29T13:41:36.208Z,27.80
2023-06-29T13:44:03.914Z,27.80
2023-06-29T13:46:30.193Z,27.70
2023-06-29T13:49:03.434Z,27.80
2023-06-29T13:51:30.704Z,27.80
2023-06-29T13:53:57.370Z,28.20
2023-06-29T13:56:24.041Z,29.10
2023-06-29T13:58:51.750Z,29.40
2023-06-29T14:01:18.463Z,29.80
2023-06-29T14:03:46.066Z,29.80
2023-06-29T14:06:13.101Z,30.00
2023-06-29T14:08:40.052Z,29.90
2023-06-29T14:11:06.415Z,29.30
2023-06-29T14:13:32.656Z,28.50
2023-06-29T14:15:59.284Z,27.90
2023-06-29T14:18:25.852Z,27.50
2023-06-29T14:20:52.822Z,26.90
2023-06-29T14:23:21.205Z,27.30
2023-06-29T14:25:47.782Z,28.00
2023-06-29T14:28:14.237Z,27.90
2023-06-29T14:30:40.802Z,28.00
2023-06-29T14:33:19.762Z,27.60
2023-06-29T14:35:54.407Z,27.10
2023-06-29T14:38:25.189Z,26.80
2023-06-29T14:40:51.562Z,27.00
2023-06-29T14:43:20.876Z,27.70
2023-06-29T14:45:47.500Z,27.10
2023-06-29T14:48:14.038Z,27.70
2023-06-29T14:50:40.273Z,28.30
2023-06-29T14:53:06.562Z,27.80
2023-06-29T14:55:33.684Z,27.50
2023-06-29T14:58:02.009Z,28.30
2023-06-29T15:00:28.504Z,28.30
2023-06-29T15:02:54.801Z,27.80
2023-06-29T15:05:21.175Z,28.00
2023-06-29T15:07:48.226Z,28.10
2023-06-29T15:10:14.466Z,28.40
2023-06-29T15:12:40.664Z,27.30
2023-06-29T15:15:07.808Z,27.20
2023-06-29T15:17:34.147Z,26.80
2023-06-29T15:20:00.940Z,27.00
2023-06-29T15:22:27.248Z,26.70
2023-06-29T15:24:54.021Z,26.80
2023-06-29T15:27:20.658Z,27.30
2023-06-29T15:29:49.858Z,27.60
2023-06-29T15:32:17.064Z,27.50
2023-06-29T15:34:43.276Z,27.60
2023-06-29T15:37:09.664Z,27.80
2023-06-29T15:39:36.095Z,27.80
2023-06-29T15:42:02.770Z,27.80
2023-06-29T15:44:29.043Z,28.00
2023-06-29T15:46:55.378Z,27.40
2023-06-29T15:49:22.033Z,27.10
2023-06-29T15:51:49.210Z,27.50
2023-06-29T15:54:15.558Z,27.70
2023-06-29T15:56:41.824Z,28.10
2023-06-29T15:59:11.438Z,28.20
2023-06-29T16:01:40.950Z,28.20
2023-06-29T16:04:07.262Z,27.70
2023-06-29T16:06:34.975Z,27.40
2023-06-29T16:09:01.388Z,26.40
2023-06-29T16:11:27.790Z,26.70
2023-06-29T16:13:54.673Z,26.60
2023-06-29T16:16:21.042Z,26.10
2023-06-29T16:18:47.368Z,25.90
2023-06-29T16:21:13.625Z,25.90
2023-06-29T16:23:40.221Z,25.90
2023-06-29T16:26:06.545Z,25.90
2023-06-29T16:28:32.851Z,25.90
2023-06-29T16:31:03.260Z,25.80
2023-06-29T16:33:29.673Z,25.80
2023-06-29T16:35:55.981Z,26.00
2023-06-29T16:38:22.264Z,26.20
2023-06-29T16:40:48.819Z,26.20
2023-06-29T16:43:15.309Z,26.40
2023-06-29T16:45:41.732Z,26.10
2023-06-29T16:48:08.299Z,26.10
2023-06-29T16:50:34.747Z,26.20
2023-06-29T16:53:01.086Z,26.00
2023-06-29T16:55:27.321Z,25.80
2023-06-29T16:57:53.569Z,26.00
2023-06-29T17:00:20.525Z,25.80
2023-06-29T17:02:47.652Z,25.80
2023-06-29T17:05:14.135Z,25.80
2023-06-29T17:07:40.477Z,25.80
2023-06-29T17:10:07.582Z,25.70
2023-06-29T17:12:33.850Z,25.50
2023-06-29T17:15:00.238Z,25.40
2023-06-29T17:17:26.721Z,25.40
2023-06-29T17:19:53.091Z,25.30
2023-06-29T17:22:19.337Z,25.10
2023-06-29T17:24:45.588Z,25.00
2023-06-29T17:27:12.202Z,24.80
2023-06-29T17:29:41.374Z,24.70
2023-06-29T17:32:08.844Z,24.60
2023-06-29T17:34:35.152Z,24.50
2023-06-29T17:37:02.495Z,24.30
2023-06-29T17:39:29.863Z,24.30
2023-06-29T17:41:57.966Z,24.10
2023-06-29T17:44:24.404Z,24.00
2023-06-29T17:46:50.907Z,23.80
2023-06-29T17:49:17.328Z,23.70
2023-06-29T17:51:43.985Z,23.60
2023-06-29T17:54:10.272Z,23.60
2023-06-29T17:56:36.978Z,23.30
2023-06-29T17:59:03.438Z,23.10
2023-06-29T18:01:30.336Z,23.10
2023-06-29T18:03:57.052Z,22.90
2023-06-29T18:06:23.508Z,22.70
2023-06-29T18:08:49.813Z,22.60
2023-06-29T18:11:16.331Z,22.50
2023-06-29T18:13:42.825Z,22.30
2023-06-29T18:16:10.011Z,22.20
2023-06-29T18:18:36.436Z,22.10
2023-06-29T18:21:02.721Z,21.90
2023-06-29T18:23:28.918Z,21.80
2023-06-29T18:25:55.294Z,21.60
2023-06-29T18:28:22.195Z,21.30
2023-06-29T18:30:48.616Z,21.10
2023-06-29T18:33:14.941Z,20.80
2023-06-29T18:35:41.373Z,20.60
2023-06-29T18:38:07.924Z,20.40
2023-06-29T18:40:34.443Z,20.20
2023-06-29T18:43:01.441Z,20.00
2023-06-29T18:45:30.372Z,19.80
2023-06-29T18:47:57.235Z,19.60
2023-06-29T18:50:23.927Z,19.50
2023-06-29T18:52:50.199Z,19.20
2023-06-29T18:55:17.304Z,19.10
2023-06-29T18:57:44.167Z,18.80
2023-06-29T19:00:11.595Z,18.70
2023-06-29T19:02:42.328Z,18.50
2023-06-29T19:05:09.063Z,18.40
2023-06-29T19:07:36.285Z,18.20
2023-06-29T19:10:03.165Z,18.10
2023-06-29T19:12:29.610Z,18.00
2023-06-29T19:14:56.508Z,17.90
2023-06-29T19:17:23.740Z,17.80
2023-06-29T19:19:50.211Z,17.70
2023-06-29T19:22:17.079Z,17.50
2023-06-29T19:24:43.654Z,17.40
2023-06-29T19:27:10.012Z,17.30
2023-06-29T19:29:36.456Z,17.20
2023-06-29T19:32:04.164Z,17.10
2023-06-29T19:34:31.684Z,17.00
2023-06-29T19:37:01.671Z,16.90
2023-06-29T19:39:28.172Z,16.80
2023-06-29T19:41:54.618Z,16.70
2023-06-29T19:44:21.111Z,16.70
2023-06-29T19:46:47.948Z,16.60
2023-06-29T19:49:14.393Z,16.50
2023-06-29T19:51:45.036Z,16.50
2023-06-29T19:54:11.458Z,16.40
2023-06-29T19:56:38.833Z,16.30
2023-06-29T19:59:05.708Z,16.20
2023-06-29T20:01:32.148Z,16.10
2023-06-29T20:03:58.501Z,16.10
2023-06-29T20:06:25.130Z,16.00
2023-06-29T20:08:51.414Z,15.90
2023-06-29T20:11:17.805Z,15.80
2023-06-29T20:13:44.260Z,15.80
2023-06-29T20:16:10.642Z,15.70
2023-06-29T20:18:37.065Z,15.60
2023-06-29T20:21:03.448Z,15.60
2023-06-29T20:23:29.727Z,15.50
2023-06-29T20:25:56.006Z,15.40
2023-06-29T20:28:22.501Z,15.40
2023-06-29T20:30:48.772Z,15.40
2023-06-29T20:33:15.418Z,15.30
2023-06-29T20:35:42.008Z,15.30
2023-06-29T20:38:08.508Z,15.20
2023-06-29T20:40:34.791Z,15.10
2023-06-29T20:43:01.198Z,15.10
2023-06-29T20:45:27.604Z,15.00
2023-06-29T20:47:54.036Z,15.00
2023-06-29T20:50:20.582Z,15.00
2023-06-29T20:52:46.876Z,14.90
2023-06-29T20:55:13.280Z,14.80
2023-06-29T20:57:40.654Z,14.80
2023-06-29T21:00:10.379Z,14.70
2023-06-29T21:02:36.885Z,14.70
2023-06-29T21:05:05.277Z,14.70
2023-06-29T21:07:32.143Z,14.60
2023-06-29T21:09:58.869Z,14.60
2023-06-29T21:12:26.694Z,14.60
2023-06-29T21:14:54.041Z,14.50
2023-06-29T21:17:21.374Z,14.50
2023-06-29T21:19:47.958Z,14.40
2023-06-29T21:22:16.854Z,14.40
2023-06-29T21:24:45.299Z,14.40
2023-06-29T21:27:18.003Z,14.30
2023-06-29T21:29:47.619Z,14.30
2023-06-29T21:32:14.753Z,14.30
2023-06-29T21:34:41.441Z,14.20
2023-06-29T21:37:08.769Z,14.20
2023-06-29T21:39:35.092Z,14.10
2023-06-29T21:42:02.392Z,14.10
2023-06-29T21:44:28.733Z,14.10
2023-06-29T21:46:55.035Z,14.10
2023-06-29T21:49:22.176Z,14.10
2023-06-29T21:51:48.740Z,14.10
2023-06-29T21:54:15.266Z,14.00
2023-06-29T21:56:41.830Z,14.00
2023-06-29T21:59:08.550Z,13.90
2023-06-29T22:01:35.036Z,13.90
2023-06-29T22:04:01.743Z,13.90
2023-06-29T22:06:29.291Z,13.90
2023-06-29T22:08:56.043Z,13.90
2023-06-29T22:11:23.287Z,13.80
2023-06-29T22:13:49.714Z,13.80
2023-06-29T22:16:17.133Z,13.70
2023-06-29T22:18:43.468Z,13.70
2023-06-29T22:21:10.455Z,13.70
2023-06-29T22:23:36.868Z,13.60
2023-06-29T22:26:03.139Z,13.60
2023-06-29T22:28:29.435Z,13.50
2023-06-29T22:30:55.960Z,13.50
2023-06-29T22:33:22.392Z,13.50
2023-06-29T22:35:49.156Z,13.50
2023-06-29T22:38:16.089Z,13.50
2023-06-29T22:40:42.450Z,13.40
2023-06-29T22:43:08.726Z,13.40
2023-06-29T22:45:35.292Z,13.40
2023-06-29T22:48:02.623Z,13.40
2023-06-29T22:50:29.161Z,13.40
2023-06-29T22:52:55.489Z,13.40
2023-06-29T22:55:21.922Z,13.30
2023-06-29T22:57:48.145Z,13.30
2023-06-29T23:00:14.774Z,13.30
2023-06-29T23:02:41.124Z,13.30
2023-06-29T23:05:08.346Z,13.40
2023-06-29T23:07:34.961Z,13.40
2023-06-29T23:10:01.317Z,13.30
2023-06-29T23:12:27.492Z,13.30
2023-06-29T23:14:55.274Z,13.30
2023-06-29T23:17:26.102Z,13.30
2023-06-29T23:19:52.723Z,13.20
2023-06-29T23:22:19.118Z,13.20
2023-06-29T23:24:46.081Z,15.40
2023-06-29T23:27:12.539Z,13.20
2023-06-29T23:29:38.799Z,13.10
2023-06-29T23:32:05.290Z,13.10
2023-06-29T23:34:31.563Z,13.20
2023-06-29T23:36:57.766Z,13.20
2023-06-29T23:39:24.066Z,13.20
2023-06-29T23:41:50.274Z,13.20
2023-06-29T23:44:16.479Z,13.20
2023-06-29T23:46:47.861Z,13.20
2023-06-29T23:49:15.134Z,13.20
2023-06-29T23:51:42.457Z,13.20
2023-06-29T23:54:10.438Z,13.20
2023-06-29T23:56:38.489Z,13.20
2023-06-29T23:59:05.212Z,13.20
